Time;durP1;ratioP1;P1;durP2;ratioP2;P2;SDS_P1;SDS_P2;PMS_P1;PMS_P2;Temp;Humidity;BMP_temperature;BMP_pressure;BME280_temperature;BME280_humidity;BME280_pressure;Samples;Min_cycle;Max_cycle;Signal;HPM_P1;HPM_P2
2022/04/05 00:02:18;;;;;;;17.10;10.50;;;;;;;1.24;74.91;97350.72;108316;1277;22593;-73
2022/04/05 00:04:45;;;;;;;19.80;13.00;;;;;;;1.20;75.12;97349.70;108327;1277;22555;-73
2022/04/05 00:07:12;;;;;;;20.50;13.40;;;;;;;1.17;75.90;97344.71;108311;1277;25134;-73
2022/04/05 00:09:41;;;;;;;15.20;9.90;;;;;;;1.11;76.26;97346.20;108360;1278;22801;-73
2022/04/05 00:12:08;;;;;;;15.30;9.20;;;;;;;1.01;76.50;97337.79;108320;1277;22601;-73
2022/04/05 00:14:35;;;;;;;14.40;9.20;;;;;;;0.94;76.37;97340.86;108333;1278;22534;-73
2022/04/05 00:17:03;;;;;;;14.30;9.30;;;;;;;0.83;76.84;97335.55;108337;1277;22546;-73
2022/04/05 00:19:30;;;;;;;14.70;9.30;;;;;;;0.75;77.00;97334.36;108343;1278;22546;-73
2022/04/05 00:21:57;;;;;;;19.30;11.70;;;;;;;0.72;77.29;97324.05;108379;1277;25521;-73
2022/04/05 00:24:24;;;;;;;22.10;14.30;;;;;;;0.69;77.24;97328.14;108344;1277;22567;-74
2022/04/05 00:29:24;;;;;;;21.00;12.70;;;;;;;0.64;77.98;97319.95;109623;1266;23198;-73
2022/04/05 00:31:52;;;;;;;18.90;11.10;;;;;;;0.67;78.69;97318.10;108329;1276;22585;-73
2022/04/05 00:34:24;;;;;;;23.60;13.90;;;;;;;0.65;78.60;97319.91;108298;1278;22602;-76
2022/04/05 00:36:53;;;;;;;17.60;11.60;;;;;;;0.64;78.83;97327.65;108323;1279;24232;-73
2022/04/05 00:39:21;;;;;;;16.80;10.30;;;;;;;0.63;78.67;97320.54;108361;1278;22569;-75
2022/04/05 00:41:48;;;;;;;17.70;12.10;;;;;;;0.64;79.08;97314.14;108347;1278;22561;-75
2022/04/05 00:44:16;;;;;;;20.30;11.40;;;;;;;0.66;79.37;97310.60;108280;1278;22591;-75
2022/04/05 00:46:43;;;;;;;13.30;8.30;;;;;;;0.69;79.46;97306.21;108303;1278;22554;-75
2022/04/05 00:49:16;;;;;;;22.60;14.70;;;;;;;0.74;80.14;97298.09;108285;1279;22585;-74
2022/04/05 00:51:43;;;;;;;16.10;10.30;;;;;;;0.74;80.52;97291.23;108291;1279;22643;-75
2022/04/05 00:54:12;;;;;;;16.90;11.70;;;;;;;0.69;80.69;97291.46;108307;1279;22578;-75
2022/04/05 00:56:42;;;;;;;16.80;11.40;;;;;;;0.64;80.65;97288.80;108294;1279;25330;-74
2022/04/05 00:59:10;;;;;;;16.90;9.90;;;;;;;0.63;80.31;97284.35;108273;1279;22541;-74
2022/04/05 01:01:38;;;;;;;18.10;12.50;;;;;;;0.66;80.57;97290.04;108297;1279;22594;-74
2022/04/05 01:04:08;;;;;;;29.40;16.90;;;;;;;0.72;80.78;97290.47;108311;1279;24224;-74
2022/04/05 01:06:39;;;;;;;25.20;17.80;;;;;;;0.78;81.39;97285.07;108287;1278;25200;-74
2022/04/05 01:09:11;;;;;;;23.40;14.90;;;;;;;0.76;81.41;97282.56;108294;1277;23385;-74
2022/04/05 01:11:38;;;;;;;16.80;11.10;;;;;;;0.82;81.56;97271.67;108295;1277;23095;-74
2022/04/05 01:14:06;;;;;;;21.70;12.30;;;;;;;0.81;81.88;97268.45;108306;1278;22564;-74
2022/04/05 01:16:35;;;;;;;15.00;10.00;;;;;;;0.82;81.59;97261.37;108308;1279;22541;-74
2022/04/05 01:19:02;;;;;;;19.60;13.20;;;;;;;0.82;81.61;97259.98;108300;1278;25329;-74
2022/04/05 01:21:29;;;;;;;22.70;15.30;;;;;;;0.83;81.67;97262.86;108320;1278;22602;-75
2022/04/05 01:24:10;;;;;;;17.10;10.40;;;;;;;0.88;81.70;97265.71;108326;1278;23919;-74
2022/04/05 01:26:59;;;;;;;24.90;17.60;;;;;;;0.89;81.91;97265.30;108284;1278;22535;-75
2022/04/05 01:29:27;;;;;;;25.80;17.20;;;;;;;0.91;82.40;97252.87;108289;1279;22627;-75
2022/04/05 01:32:00;;;;;;;18.10;11.90;;;;;;;0.96;82.34;97255.54;108274;1279;22554;-74
2022/04/05 01:34:29;;;;;;;19.20;12.90;;;;;;;0.90;82.55;97255.50;108316;1279;25301;-74
2022/04/05 01:37:00;;;;;;;17.00;11.50;;;;;;;0.89;82.10;97251.61;108280;1278;22611;-74
2022/04/05 01:39:30;;;;;;;20.10;12.90;;;;;;;0.90;82.89;97251.55;108314;1279;24354;-74
2022/04/05 01:42:05;;;;;;;18.10;12.40;;;;;;;0.97;82.43;97257.20;108270;1279;25372;-74
2022/04/05 01:44:34;;;;;;;21.40;13.60;;;;;;;1.01;82.49;97258.55;108314;1279;22555;-74
2022/04/05 01:47:04;;;;;;;21.10;14.30;;;;;;;1.04;82.89;97253.29;108308;1279;22563;-74
2022/04/05 01:49:31;;;;;;;18.30;12.60;;;;;;;1.08;82.83;97252.56;108284;1279;22534;-74
2022/04/05 01:51:58;;;;;;;17.60;12.70;;;;;;;1.08;82.67;97254.23;108298;1279;24359;-74
2022/04/05 01:54:25;;;;;;;17.00;11.80;;;;;;;1.06;82.66;97252.30;108305;1279;23914;-75
2022/04/05 01:56:52;;;;;;;13.10;9.00;;;;;;;1.07;82.34;97248.31;108088;1279;249371;-74
2022/04/05 01:59:23;;;;;;;18.00;12.80;;;;;;;1.13;82.11;97243.91;108288;1279;24283;-74
2022/04/05 02:01:50;;;;;;;21.50;14.90;;;;;;;1.17;82.45;97243.23;108276;1279;24230;-75
2022/04/05 02:04:17;;;;;;;24.50;16.90;;;;;;;1.19;82.59;97241.70;108303;1278;23924;-75
2022/04/05 02:06:45;;;;;;;21.60;13.80;;;;;;;1.23;82.72;97237.41;108280;1279;22544;-74
2022/04/05 02:09:14;;;;;;;17.80;11.10;;;;;;;1.28;82.80;97233.05;108345;1278;22556;-75
2022/04/05 02:11:43;;;;;;;15.30;11.20;;;;;;;1.26;83.05;97232.30;108317;1278;25259;-74
2022/04/05 02:14:15;;;;;;;16.00;10.10;;;;;;;1.22;82.60;97231.45;108265;1278;22582;-76
2022/04/05 02:16:43;;;;;;;14.60;10.10;;;;;;;1.23;82.38;97227.83;108299;1279;25390;-75
2022/04/05 02:19:10;;;;;;;20.80;15.10;;;;;;;1.25;82.43;97223.25;108308;1277;22537;-75
2022/04/05 02:21:37;;;;;;;23.50;16.00;;;;;;;1.28;82.36;97224.48;108348;1278;22614;-74
2022/04/05 02:24:04;;;;;;;22.20;15.50;;;;;;;1.32;82.67;97228.42;108382;1279;22532;-75
2022/04/05 02:26:31;;;;;;;18.50;12.80;;;;;;;1.36;82.83;97228.86;108321;1278;24873;-75
2022/04/05 02:28:58;;;;;;;17.30;11.50;;;;;;;1.35;82.96;97226.33;108307;1277;23138;-75
2022/04/05 02:31:25;;;;;;;18.70;12.70;;;;;;;1.36;83.10;97228.19;108289;1278;22541;-75
2022/04/05 02:33:52;;;;;;;17.80;11.60;;;;;;;1.34;83.08;97229.14;108300;1279;22618;-75
2022/04/05 02:36:19;;;;;;;16.70;12.10;;;;;;;1.33;82.91;97227.33;108225;1279;22595;-74
2022/04/05 02:38:46;;;;;;;21.80;14.60;;;;;;;1.35;82.52;97226.52;108240;1279;22541;-74
2022/04/05 02:41:13;;;;;;;22.20;14.70;;;;;;;1.39;82.75;97229.42;108239;1279;22545;-74
2022/04/05 02:43:40;;;;;;;24.50;16.90;;;;;;;1.43;82.88;97226.45;108195;1278;22545;-75
2022/04/05 02:46:11;;;;;;;25.00;14.90;;;;;;;1.43;83.18;97223.36;108214;1279;22544;-74
2022/04/05 02:48:43;;;;;;;21.70;16.00;;;;;;;1.43;83.59;97226.64;108204;1279;24324;-74
2022/04/05 02:51:11;;;;;;;15.60;10.50;;;;;;;1.39;83.32;97228.21;108215;1279;22519;-73
2022/04/05 02:53:40;;;;;;;19.80;13.40;;;;;;;1.40;83.48;97223.54;108284;1279;22756;-74
2022/04/05 02:56:08;;;;;;;20.30;15.40;;;;;;;1.37;83.13;97224.17;108202;1279;25264;-74
2022/04/05 02:58:36;;;;;;;26.70;17.40;;;;;;;1.39;83.12;97223.89;108235;1279;22557;-74
2022/04/05 03:01:04;;;;;;;26.10;17.50;;;;;;;1.41;83.27;97223.66;108276;1279;22539;-74
2022/04/05 03:03:35;;;;;;;20.90;15.10;;;;;;;1.47;83.50;97220.41;108206;1279;22566;-74
2022/04/05 03:06:02;;;;;;;22.40;16.10;;;;;;;1.45;83.38;97224.63;108220;1279;22564;-73
2022/04/05 03:08:29;;;;;;;20.10;15.10;;;;;;;1.44;83.27;97225.39;108229;1279;24283;-74
2022/04/05 03:10:56;;;;;;;18.60;13.30;;;;;;;1.45;83.07;97221.55;108211;1279;22563;-74
2022/04/05 03:13:23;;;;;;;19.80;14.60;;;;;;;1.41;83.00;97222.11;108211;1279;22685;-74
2022/04/05 03:15:50;;;;;;;23.00;13.20;;;;;;;1.41;83.02;97225.00;108226;1279;22547;-74
2022/04/05 03:18:17;;;;;;;24.40;15.80;;;;;;;1.47;83.04;97226.58;108233;1279;22589;-74
2022/04/05 03:20:44;;;;;;;24.50;16.80;;;;;;;1.47;83.16;97229.86;108210;1279;22550;-74
2022/04/05 03:23:11;;;;;;;25.30;15.20;;;;;;;1.49;83.63;97226.66;108214;1279;22574;-74
2022/04/05 03:25:38;;;;;;;20.10;13.90;;;;;;;1.49;83.68;97229.41;108208;1279;22738;-74
2022/04/05 03:28:05;;;;;;;18.50;13.40;;;;;;;1.48;83.67;97224.48;108205;1279;22539;-74
2022/04/05 03:30:34;;;;;;;16.90;11.90;;;;;;;1.47;83.31;97218.89;108211;1279;22548;-74
2022/04/05 03:33:01;;;;;;;18.60;11.40;;;;;;;1.47;83.13;97218.54;108296;1279;22564;-74
2022/04/05 03:35:28;;;;;;;23.50;16.10;;;;;;;1.47;83.01;97218.69;108233;1279;22665;-74
2022/04/05 03:37:55;;;;;;;27.30;17.60;;;;;;;1.48;83.07;97213.67;108214;1279;22637;-74
2022/04/05 03:40:22;;;;;;;24.60;16.20;;;;;;;1.53;83.28;97212.91;108225;1279;22569;-75
2022/04/05 03:42:50;;;;;;;23.20;16.80;;;;;;;1.54;83.50;97207.89;108202;1279;22582;-74
2022/04/05 03:45:17;;;;;;;19.70;14.40;;;;;;;1.53;83.57;97211.52;108188;1279;22537;-74
2022/04/05 03:47:44;;;;;;;22.70;15.60;;;;;;;1.52;83.58;97210.59;108201;1279;24155;-74
2022/04/05 03:50:11;;;;;;;23.60;16.60;;;;;;;1.52;83.51;97209.70;108230;1279;22602;-74
2022/04/05 03:52:38;;;;;;;20.00;14.90;;;;;;;1.51;83.07;97213.00;108204;1279;22741;-74
2022/04/05 03:55:06;;;;;;;23.10;15.90;;;;;;;1.50;82.85;97211.86;108199;1279;22738;-74
2022/04/05 03:57:33;;;;;;;24.50;16.90;;;;;;;1.56;82.80;97208.63;108204;1281;22564;-74
2022/04/05 04:00:00;;;;;;;27.40;18.10;;;;;;;1.59;83.15;97212.95;108195;1279;22556;-74
2022/04/05 04:02:27;;;;;;;26.30;18.50;;;;;;;1.61;83.30;97210.80;108206;1279;22558;-74
2022/04/05 04:04:54;;;;;;;20.00;12.90;;;;;;;1.62;83.93;97212.11;108216;1279;22576;-74
2022/04/05 04:07:21;;;;;;;19.90;13.90;;;;;;;1.60;83.37;97212.74;108285;1279;25461;-74
2022/04/05 04:09:48;;;;;;;21.00;14.10;;;;;;;1.58;83.30;97213.02;108207;1278;22541;-74
2022/04/05 04:12:15;;;;;;;15.30;9.80;;;;;;;1.57;83.20;97214.07;108206;1279;24236;-74
2022/04/05 04:14:42;;;;;;;24.60;16.20;;;;;;;1.59;82.78;97214.52;108213;1279;22588;-74
2022/04/05 04:17:09;;;;;;;23.60;16.30;;;;;;;1.65;82.80;97213.98;108204;1279;22588;-74
2022/04/05 04:19:36;;;;;;;24.10;16.30;;;;;;;1.68;83.11;97220.89;108299;1279;22554;-74
2022/04/05 04:22:03;;;;;;;26.80;14.80;;;;;;;1.69;83.53;97217.90;108243;1279;22569;-74
2022/04/05 04:24:30;;;;;;;18.80;13.40;;;;;;;1.71;83.71;97219.48;108231;1279;22545;-74
2022/04/05 04:26:57;;;;;;;18.00;12.80;;;;;;;1.70;83.64;97215.27;108208;1279;25245;-74
2022/04/05 04:29:24;;;;;;;17.40;12.00;;;;;;;1.69;83.42;97217.56;108180;1279;22534;-74
2022/04/05 04:31:51;;;;;;;16.40;10.30;;;;;;;1.68;83.55;97218.48;108206;1279;24263;-74
2022/04/05 04:34:18;;;;;;;21.60;14.30;;;;;;;1.71;83.10;97220.23;108224;1279;22553;-74
2022/04/05 04:36:45;;;;;;;23.50;14.20;;;;;;;1.75;83.31;97222.73;108204;1279;24281;-74
2022/04/05 04:39:16;;;;;;;23.80;16.10;;;;;;;1.80;83.49;97217.69;108196;1279;22564;-74
2022/04/05 04:41:44;;;;;;;21.10;14.30;;;;;;;1.78;83.53;97218.77;108231;1279;22593;-74
2022/04/05 04:44:11;;;;;;;20.50;13.00;;;;;;;1.81;83.81;97218.46;108236;1279;22537;-74
2022/04/05 04:46:55;;;;;;;18.20;11.90;;;;;;;1.81;83.96;97220.54;108293;1279;22584;-75
2022/04/05 04:49:40;;;;;;;20.30;13.40;;;;;;;1.81;83.47;97224.31;108256;1279;22698;-74
2022/04/05 04:52:07;;;;;;;16.50;11.10;;;;;;;1.79;83.39;97224.20;108273;1279;22584;-75
2022/04/05 04:54:34;;;;;;;23.40;15.20;;;;;;;1.81;83.18;97223.42;108250;1279;25379;-74
2022/04/05 04:57:01;;;;;;;21.30;14.70;;;;;;;1.86;82.99;97225.60;108216;1279;22569;-74
2022/04/05 04:59:28;;;;;;;22.00;15.40;;;;;;;1.91;83.07;97224.63;108196;1279;22607;-75
2022/04/05 05:01:55;;;;;;;22.30;15.20;;;;;;;1.94;83.30;97225.01;108222;1279;22580;-75
2022/04/05 05:04:22;;;;;;;18.40;13.00;;;;;;;1.99;83.50;97220.96;108223;1279;22586;-74
2022/04/05 05:06:51;;;;;;;18.60;11.70;;;;;;;1.99;83.58;97226.45;108195;1279;22551;-74
2022/04/05 05:09:18;;;;;;;20.00;13.20;;;;;;;2.00;83.13;97227.09;108201;1279;23384;-74
2022/04/05 05:11:45;;;;;;;16.70;11.70;;;;;;;2.00;83.18;97227.23;108191;1279;24274;-75
2022/04/05 05:14:12;;;;;;;21.60;14.00;;;;;;;2.01;82.91;97228.92;108219;1279;22574;-74
2022/04/05 05:16:39;;;;;;;22.10;15.50;;;;;;;2.07;82.82;97226.70;108210;1279;22575;-74
2022/04/05 05:19:06;;;;;;;21.40;15.60;;;;;;;2.14;82.96;97229.06;108210;1279;22556;-74
2022/04/05 05:21:33;;;;;;;18.90;13.70;;;;;;;2.19;83.19;97232.76;108301;1279;22560;-75
2022/04/05 05:24:00;;;;;;;17.70;11.50;;;;;;;2.22;83.30;97229.69;108207;1281;22647;-74
2022/04/05 05:26:27;;;;;;;17.50;12.60;;;;;;;2.25;83.26;97233.09;108310;1279;22550;-73
2022/04/05 05:28:54;;;;;;;15.80;11.20;;;;;;;2.28;82.94;97231.95;108234;1279;22631;-75
2022/04/05 05:31:21;;;;;;;14.80;9.60;;;;;;;2.26;82.97;97232.52;108283;1279;22544;-74
2022/04/05 05:33:48;;;;;;;17.70;12.00;;;;;;;2.31;82.65;97232.64;108184;1279;22594;-74
2022/04/05 05:36:15;;;;;;;18.20;13.70;;;;;;;2.36;82.88;97237.36;108241;1279;24266;-75
2022/04/05 05:38:42;;;;;;;18.50;13.40;;;;;;;2.39;82.99;97238.72;108263;1279;22621;-75
2022/04/05 05:41:09;;;;;;;15.70;10.50;;;;;;;2.43;83.30;97239.52;108312;1279;24252;-75
2022/04/05 05:43:38;;;;;;;17.60;12.80;;;;;;;2.48;83.05;97242.34;108266;1279;22592;-75
2022/04/05 05:46:06;;;;;;;18.90;12.60;;;;;;;2.46;83.03;97240.02;108287;1280;24240;-74
2022/04/05 05:48:34;;;;;;;16.90;10.70;;;;;;;2.46;82.96;97240.23;108199;1281;24329;-74
2022/04/05 05:51:01;;;;;;;19.10;13.20;;;;;;;2.49;82.60;97240.94;108267;1280;22646;-74
2022/04/05 05:53:28;;;;;;;20.70;14.70;;;;;;;2.54;82.66;97240.29;108248;1279;22577;-74
2022/04/05 05:55:55;;;;;;;19.40;13.90;;;;;;;2.59;82.88;97239.02;108315;1281;22580;-74
2022/04/05 05:58:22;;;;;;;20.50;12.90;;;;;;;2.61;82.96;97243.17;108241;1280;22572;-74
2022/04/05 06:00:50;;;;;;;19.50;12.40;;;;;;;2.63;83.12;97244.60;108266;1279;25268;-75
2022/04/05 06:03:17;;;;;;;16.80;11.60;;;;;;;2.64;83.04;97243.70;108278;1279;22585;-74
2022/04/05 06:05:46;;;;;;;20.20;12.20;;;;;;;2.63;82.69;97252.30;108274;1281;25310;-74
2022/04/05 06:08:14;;;;;;;17.40;12.10;;;;;;;2.63;82.60;97253.73;108251;1279;25277;-74
2022/04/05 06:10:41;;;;;;;21.70;13.20;;;;;;;2.62;82.63;97252.55;108233;1281;22543;-74
2022/04/05 06:13:08;;;;;;;19.90;12.90;;;;;;;2.70;82.56;97256.27;108224;1279;25360;-74
2022/04/05 06:15:36;;;;;;;24.40;15.10;;;;;;;2.73;82.98;97260.23;108178;1281;22542;-74
2022/04/05 06:18:03;;;;;;;18.60;12.80;;;;;;;2.77;83.04;97261.91;108182;1281;22597;-74
2022/04/05 06:20:30;;;;;;;19.70;12.10;;;;;;;2.79;82.99;97262.45;108208;1279;22557;-74
2022/04/05 06:22:58;;;;;;;18.70;13.00;;;;;;;2.79;82.98;97264.34;108198;1281;22572;-75
2022/04/05 06:25:29;;;;;;;17.60;13.10;;;;;;;2.84;82.58;97264.60;108282;1281;22545;-74
2022/04/05 06:28:01;;;;;;;17.70;11.40;;;;;;;2.83;82.41;97264.27;108296;1279;22597;-74
2022/04/05 06:30:29;;;;;;;21.80;14.50;;;;;;;2.84;82.21;97266.30;108202;1279;24268;-74
2022/04/05 06:33:14;;;;;;;20.40;13.70;;;;;;;2.91;82.29;97265.36;108208;1280;22554;-74
2022/04/05 06:35:45;;;;;;;21.20;13.60;;;;;;;2.97;82.35;97263.33;108196;1280;22551;-75
2022/04/05 06:38:13;;;;;;;18.50;12.70;;;;;;;3.00;82.55;97267.81;108251;1279;22709;-75
2022/04/05 06:40:41;;;;;;;18.60;11.40;;;;;;;3.07;82.60;97268.27;108276;1281;24282;-74
2022/04/05 06:43:08;;;;;;;20.70;13.70;;;;;;;3.07;82.41;97267.09;108266;1280;22594;-75
2022/04/05 06:45:35;;;;;;;17.80;11.90;;;;;;;3.06;82.21;97267.80;108195;1281;22541;-75
2022/04/05 06:48:03;;;;;;;20.30;12.80;;;;;;;3.07;82.27;97269.64;108198;1281;22582;-74
2022/04/05 06:50:30;;;;;;;21.10;13.80;;;;;;;3.09;82.37;97272.83;108194;1281;22553;-75
2022/04/05 06:53:00;;;;;;;21.10;15.00;;;;;;;3.16;82.48;97272.08;108226;1279;22540;-75
2022/04/05 06:55:27;;;;;;;18.10;12.50;;;;;;;3.22;82.84;97270.69;108217;1281;22571;-75
2022/04/05 06:57:55;;;;;;;21.20;13.50;;;;;;;3.30;82.85;97272.93;108223;1281;22563;-75
2022/04/05 07:00:23;;;;;;;18.30;13.00;;;;;;;3.41;82.41;97277.15;108217;1281;22554;-74
2022/04/05 07:02:52;;;;;;;21.80;12.50;;;;;;;3.42;82.51;97276.92;108224;1281;22544;-74
2022/04/05 07:05:19;;;;;;;19.30;13.50;;;;;;;3.49;82.10;97279.13;108218;1281;22545;-74
2022/04/05 07:07:46;;;;;;;21.70;14.20;;;;;;;3.57;82.12;97274.66;108215;1281;22741;-74
2022/04/05 07:10:16;;;;;;;20.60;13.50;;;;;;;3.64;82.22;97275.14;108270;1281;23970;-74
2022/04/05 07:12:44;;;;;;;19.10;13.10;;;;;;;3.66;82.33;97281.23;108177;1281;22628;-74
2022/04/05 07:15:11;;;;;;;17.20;11.40;;;;;;;3.64;82.00;97281.52;108261;1281;22563;-74
2022/04/05 07:17:39;;;;;;;13.30;10.20;;;;;;;3.64;81.67;97281.66;108208;1279;22541;-74
2022/04/05 07:20:09;;;;;;;14.40;10.30;;;;;;;3.65;81.46;97284.02;108205;1281;22645;-74
2022/04/05 07:22:43;;;;;;;17.60;12.00;;;;;;;3.64;81.37;97283.42;108223;1281;22536;-75
2022/04/05 07:25:10;;;;;;;16.40;12.00;;;;;;;3.70;81.60;97286.29;108201;1279;25363;-75
2022/04/05 07:27:37;;;;;;;14.50;11.60;;;;;;;3.74;81.73;97287.27;108201;1280;25402;-75
2022/04/05 07:30:05;;;;;;;14.30;9.70;;;;;;;3.68;81.43;97291.42;108184;1281;22588;-74
2022/04/05 07:32:40;;;;;;;14.70;10.00;;;;;;;3.60;81.41;97290.33;108262;1281;22563;-74
2022/04/05 07:35:08;;;;;;;13.10;10.10;;;;;;;3.66;81.15;97292.06;108273;1280;22710;-74
2022/04/05 07:37:35;;;;;;;16.90;11.60;;;;;;;3.67;81.35;97293.51;108235;1281;22545;-74
2022/04/05 07:40:05;;;;;;;15.70;11.70;;;;;;;3.71;81.42;97296.05;108210;1281;22554;-74
2022/04/05 07:42:32;;;;;;;17.40;12.60;;;;;;;3.78;81.51;97298.23;108230;1279;22553;-74
2022/04/05 07:45:00;;;;;;;15.80;10.50;;;;;;;3.80;81.72;97295.86;108284;1281;22589;-74
2022/04/05 07:47:27;;;;;;;14.00;9.70;;;;;;;3.80;81.40;97298.28;108204;1279;22631;-74
2022/04/05 07:49:54;;;;;;;14.30;10.20;;;;;;;3.78;81.13;97297.38;108261;1281;22552;-74
2022/04/05 07:52:21;;;;;;;14.70;9.20;;;;;;;3.76;81.15;97302.12;108210;1281;22592;-74
2022/04/05 07:54:48;;;;;;;14.90;11.20;;;;;;;3.82;80.85;97303.85;108227;1281;22578;-74
2022/04/05 07:57:15;;;;;;;17.10;11.80;;;;;;;3.80;81.04;97301.72;108192;1279;22532;-74
2022/04/05 07:59:42;;;;;;;13.70;9.30;;;;;;;3.81;81.32;97303.41;108189;1281;24169;-74
2022/04/05 08:02:09;;;;;;;12.70;8.80;;;;;;;3.85;81.01;97303.31;108196;1279;23090;-74
2022/04/05 08:04:36;;;;;;;12.90;8.40;;;;;;;3.84;80.86;97309.27;108286;1280;22544;-74
2022/04/05 08:07:04;;;;;;;15.60;11.00;;;;;;;3.82;80.88;97309.51;108199;1279;22603;-74
2022/04/05 08:09:30;;;;;;;12.30;9.20;;;;;;;3.85;80.61;97312.46;108213;1279;24227;-74
2022/04/05 08:11:58;;;;;;;15.30;11.00;;;;;;;3.91;80.89;97314.87;108204;1279;22653;-74
2022/04/05 08:14:28;;;;;;;16.40;11.20;;;;;;;3.93;81.05;97314.59;108269;1280;22540;-74
2022/04/05 08:16:56;;;;;;;13.80;9.40;;;;;;;3.93;81.21;97316.59;108198;1279;22673;-74
2022/04/05 08:19:24;;;;;;;14.80;9.00;;;;;;;3.93;81.23;97323.13;108207;1279;22562;-75
2022/04/05 08:21:51;;;;;;;11.70;8.80;;;;;;;3.92;81.03;97324.61;108218;1279;24243;-74
2022/04/05 08:24:20;;;;;;;10.50;7.50;;;;;;;3.97;80.60;97326.39;108290;1279;22562;-74
2022/04/05 08:26:48;;;;;;;11.90;9.00;;;;;;;4.01;80.47;97326.45;108218;1279;22614;-75
2022/04/05 08:29:15;;;;;;;15.40;10.90;;;;;;;3.98;80.67;97329.59;108207;1279;22571;-76
2022/04/05 08:31:42;;;;;;;14.40;10.20;;;;;;;4.03;81.16;97335.30;108184;1279;22538;-75
2022/04/05 08:34:09;;;;;;;13.70;8.90;;;;;;;4.10;81.36;97333.01;108302;1281;25522;-75
2022/04/05 08:36:36;;;;;;;13.60;10.00;;;;;;;4.12;81.02;97338.20;108264;1279;22573;-77
2022/04/05 08:39:03;;;;;;;13.10;9.70;;;;;;;4.12;80.87;97336.64;108197;1279;22538;-73
2022/04/05 08:41:35;;;;;;;13.90;9.90;;;;;;;4.11;80.67;97336.23;108193;1279;24278;-74
2022/04/05 08:44:03;;;;;;;13.80;8.90;;;;;;;4.15;80.23;97335.61;108201;1279;22545;-74
2022/04/05 08:46:34;;;;;;;17.00;10.40;;;;;;;4.18;80.38;97338.60;108205;1279;22603;-73
2022/04/05 08:49:02;;;;;;;15.70;10.00;;;;;;;4.22;80.74;97344.52;108209;1279;22538;-73
2022/04/05 08:51:30;;;;;;;15.90;9.80;;;;;;;4.25;81.14;97351.92;108239;1279;23905;-74
2022/04/05 08:53:57;;;;;;;13.80;10.10;;;;;;;4.28;81.07;97344.70;108245;1279;22536;-73
2022/04/05 08:56:30;;;;;;;13.70;9.40;;;;;;;4.32;80.87;97345.64;108205;1279;22560;-74
2022/04/05 08:58:57;;;;;;;17.90;11.10;;;;;;;4.32;80.41;97349.58;108178;1279;22541;-74
2022/04/05 09:01:29;;;;;;;16.90;11.00;;;;;;;4.33;80.37;97346.60;108199;1279;22610;-73
2022/04/05 09:03:57;;;;;;;14.90;10.80;;;;;;;4.41;80.38;97349.09;108217;1279;22535;-74
2022/04/05 09:06:36;;;;;;;12.50;8.30;;;;;;;4.52;80.67;97349.56;108224;1279;22670;-75
2022/04/05 09:09:11;;;;;;;14.30;8.40;;;;;;;4.59;80.84;97344.50;108230;1279;24255;-73
2022/04/05 09:11:49;;;;;;;12.70;8.60;;;;;;;4.59;80.76;97347.42;108194;1279;22545;-74
2022/04/05 09:14:24;;;;;;;10.80;7.30;;;;;;;4.66;80.51;97353.06;108221;1279;22567;-74
2022/04/05 09:17:06;;;;;;;7.90;5.30;;;;;;;4.77;79.76;97354.58;108178;1279;25426;-73
2022/04/05 09:19:48;;;;;;;11.00;6.40;;;;;;;4.93;79.46;97356.90;108207;1279;22635;-74
2022/04/05 09:22:32;;;;;;;9.50;6.60;;;;;;;5.04;79.54;97356.89;108215;1279;22531;-73
2022/04/05 09:25:13;;;;;;;6.60;4.70;;;;;;;5.12;80.03;97358.25;108200;1279;24262;-74
2022/04/05 09:27:44;;;;;;;7.90;4.70;;;;;;;5.23;79.92;97358.89;108214;1279;22571;-73
2022/04/05 09:30:19;;;;;;;8.20;5.10;;;;;;;5.26;79.14;97358.94;108273;1279;24917;-73
2022/04/05 09:32:48;;;;;;;9.40;6.30;;;;;;;5.27;78.86;97362.27;108202;1279;22628;-73
2022/04/05 09:35:18;;;;;;;11.60;7.30;;;;;;;5.37;78.64;97362.16;108197;1279;22635;-73
2022/04/05 09:37:46;;;;;;;13.00;9.80;;;;;;;5.51;78.49;97366.44;108288;1279;22576;-74
2022/04/05 09:40:18;;;;;;;11.10;7.20;;;;;;;5.77;78.13;97365.59;108235;1279;22576;-74
2022/04/05 09:43:17;;;;;;;9.30;5.40;;;;;;;5.98;77.89;97365.96;108275;1279;22575;-73
2022/04/05 09:46:00;;;;;;;7.20;3.80;;;;;;;6.04;77.17;97372.51;108278;1279;22547;-74
2022/04/05 09:48:30;;;;;;;7.20;4.00;;;;;;;6.00;76.87;97376.23;108286;1279;22565;-73
2022/04/05 09:51:03;;;;;;;7.50;4.50;;;;;;;5.96;76.43;97377.81;108211;1279;22793;-73
2022/04/05 09:53:43;;;;;;;7.30;4.20;;;;;;;6.01;75.83;97375.24;108289;1279;22558;-74
2022/04/05 09:56:14;;;;;;;6.60;4.30;;;;;;;6.10;75.97;97379.33;108220;1279;22518;-74
2022/04/05 09:58:52;;;;;;;7.10;4.30;;;;;;;6.33;75.65;97379.86;108268;1279;22587;-74
2022/04/05 10:01:24;;;;;;;6.50;3.70;;;;;;;6.57;75.70;97379.58;108195;1279;22536;-74
2022/04/05 10:04:08;;;;;;;6.70;3.60;;;;;;;6.66;75.91;97379.67;108226;1279;22731;-75
2022/04/05 10:06:43;;;;;;;10.20;4.30;;;;;;;6.66;75.24;97380.00;108217;1279;22567;-75
2022/04/05 10:09:12;;;;;;;7.20;4.10;;;;;;;6.65;75.01;97382.67;108227;1279;22535;-74
2022/04/05 10:11:41;;;;;;;8.20;5.20;;;;;;;6.64;74.31;97381.85;108237;1279;24283;-74
2022/04/05 10:14:10;;;;;;;8.10;4.80;;;;;;;6.53;74.31;97385.40;108234;1279;22582;-74
2022/04/05 10:16:38;;;;;;;6.70;3.70;;;;;;;6.44;74.30;97389.30;108198;1279;22594;-75
2022/04/05 10:19:09;;;;;;;8.50;3.90;;;;;;;6.32;74.70;97394.95;108204;1279;24113;-74
2022/04/05 10:21:39;;;;;;;9.30;5.50;;;;;;;6.24;74.57;97394.83;108199;1279;22547;-74
2022/04/05 10:24:08;;;;;;;7.90;4.70;;;;;;;6.27;74.37;97391.30;108191;1279;22848;-74
2022/04/05 10:26:37;;;;;;;6.70;4.00;;;;;;;6.23;74.26;97394.02;108309;1279;22663;-74
2022/04/05 10:29:10;;;;;;;7.50;4.30;;;;;;;6.16;74.20;97394.66;108268;1279;22534;-74
2022/04/05 10:32:04;;;;;;;10.80;4.40;;;;;;;6.09;74.49;97396.84;108279;1279;22540;-74
2022/04/05 10:34:46;;;;;;;8.70;4.80;;;;;;;6.02;74.91;97398.89;108287;1279;22542;-76
2022/04/05 10:37:16;;;;;;;10.40;5.90;;;;;;;5.92;75.19;97399.02;108255;1279;22556;-74
2022/04/05 10:40:05;;;;;;;9.80;6.50;;;;;;;5.87;75.33;97398.67;108260;1279;22582;-74
2022/04/05 10:42:36;;;;;;;10.70;7.10;;;;;;;5.79;75.19;97401.40;108248;1279;24234;-74
2022/04/05 10:45:14;;;;;;;12.70;6.80;;;;;;;5.71;75.25;97406.95;108260;1279;22601;-74
2022/04/05 10:48:00;;;;;;;11.60;6.00;;;;;;;5.63;75.38;97407.27;108275;1279;22573;-74
2022/04/05 10:50:28;;;;;;;13.60;8.20;;;;;;;5.58;75.70;97406.21;108261;1279;22628;-75
2022/04/05 10:53:21;;;;;;;14.90;8.20;;;;;;;5.53;76.21;97409.84;108221;1279;22568;-74
2022/04/05 10:56:03;;;;;;;10.70;6.70;;;;;;;5.42;76.78;97412.05;108287;1279;22545;-72
2022/04/05 10:58:32;;;;;;;10.80;6.40;;;;;;;5.34;76.44;97412.97;108277;1279;22645;-75
2022/04/05 11:01:15;;;;;;;10.00;5.90;;;;;;;5.24;76.41;97417.55;108206;1279;22644;-75
2022/04/05 11:03:46;;;;;;;11.60;6.30;;;;;;;5.16;76.06;97414.46;108252;1279;22562;-76
2022/04/05 11:06:13;;;;;;;13.30;8.90;;;;;;;5.08;75.87;97414.09;108251;1279;22571;-75
2022/04/05 11:08:42;;;;;;;10.80;6.60;;;;;;;5.06;75.72;97413.53;108192;1279;22537;-75
2022/04/05 11:11:09;;;;;;;15.70;8.00;;;;;;;5.08;76.15;97404.38;108206;1279;22648;-73
2022/04/05 11:13:42;;;;;;;14.30;8.50;;;;;;;5.09;76.54;97405.75;108224;1279;24241;-73
2022/04/05 11:16:11;;;;;;;13.20;7.60;;;;;;;5.10;76.45;97407.60;108222;1279;22592;-73
2022/04/05 11:18:40;;;;;;;11.60;6.30;;;;;;;5.05;76.14;97407.19;108306;1279;22554;-74
2022/04/05 11:21:09;;;;;;;11.60;6.30;;;;;;;5.02;76.07;97413.10;108219;1279;22524;-74
2022/04/05 11:23:49;;;;;;;14.20;7.50;;;;;;;5.01;75.86;97416.56;108221;1279;22541;-74
2022/04/05 11:26:28;;;;;;;13.10;6.70;;;;;;;5.06;75.78;97418.51;108221;1279;25278;-74
2022/04/05 11:28:57;;;;;;;14.70;7.40;;;;;;;5.21;75.87;97416.19;108237;1279;22572;-75
2022/04/05 11:31:34;;;;;;;21.20;12.20;;;;;;;5.46;75.81;97408.92;108327;1279;22571;-74
2022/04/05 11:34:03;;;;;;;26.10;14.80;;;;;;;5.58;76.01;97410.86;108228;1279;22553;-74